sensor_id;sensor_type;location;lat;lon;timestamp;P1;durP1;ratioP1;P2;durP2;ratioP2
41261;SDS011;29629;52.532;13.352;2022-08-03T00:00:55;20.70;;;11.77;;
41261;SDS011;29629;52.532;13.352;2022-08-03T00:03:22;13.88;;;10.77;;
41261;SDS011;29629;52.532;13.352;2022-08-03T00:05:49;15.07;;;10.00;;
41261;SDS011;29629;52.532;13.352;2022-08-03T00:08:16;16.52;;;11.10;;
41261;SDS011;29629;52.532;13.352;2022-08-03T00:10:43;21.27;;;10.80;;
41261;SDS011;29629;52.532;13.352;2022-08-03T00:13:11;18.77;;;10.68;;
41261;SDS011;29629;52.532;13.352;2022-08-03T00:15:39;22.33;;;9.82;;
41261;SDS011;29629;52.532;13.352;2022-08-03T00:18:07;18.00;;;10.10;;
41261;SDS011;29629;52.532;13.352;2022-08-03T00:20:34;17.63;;;10.18;;
41261;SDS011;29629;52.532;13.352;2022-08-03T00:23:02;16.70;;;9.73;;
41261;SDS011;29629;52.532;13.352;2022-08-03T00:25:29;19.45;;;8.77;;
41261;SDS011;29629;52.532;13.352;2022-08-03T00:27:56;14.20;;;8.63;;
41261;SDS011;29629;52.532;13.352;2022-08-03T00:30:23;17.52;;;9.43;;
41261;SDS011;29629;52.532;13.352;2022-08-03T00:32:51;13.88;;;9.18;;
41261;SDS011;29629;52.532;13.352;2022-08-03T00:35:18;17.95;;;9.45;;
41261;SDS011;29629;52.532;13.352;2022-08-03T00:37:45;8.88;;;8.00;;
41261;SDS011;29629;52.532;13.352;2022-08-03T00:40:12;19.23;;;9.88;;
41261;SDS011;29629;52.532;13.352;2022-08-03T00:42:47;21.85;;;9.48;;
41261;SDS011;29629;52.532;13.352;2022-08-03T00:45:15;24.88;;;11.18;;
41261;SDS011;29629;52.532;13.352;2022-08-03T00:47:43;19.55;;;10.80;;
41261;SDS011;29629;52.532;13.352;2022-08-03T00:50:11;14.95;;;9.70;;
41261;SDS011;29629;52.532;13.352;2022-08-03T00:52:38;15.60;;;9.02;;
41261;SDS011;29629;52.532;13.352;2022-08-03T00:55:06;16.58;;;8.70;;
41261;SDS011;29629;52.532;13.352;2022-08-03T00:57:33;19.17;;;9.80;;
41261;SDS011;29629;52.532;13.352;2022-08-03T01:00:00;12.73;;;8.70;;
41261;SDS011;29629;52.532;13.352;2022-08-03T01:02:28;14.65;;;8.75;;
41261;SDS011;29629;52.532;13.352;2022-08-03T01:04:54;18.50;;;9.77;;
41261;SDS011;29629;52.532;13.352;2022-08-03T01:07:24;16.45;;;9.18;;
41261;SDS011;29629;52.532;13.352;2022-08-03T01:10:01;13.68;;;11.13;;
41261;SDS011;29629;52.532;13.352;2022-08-03T01:12:34;18.10;;;12.05;;
41261;SDS011;29629;52.532;13.352;2022-08-03T01:15:06;22.13;;;13.70;;
41261;SDS011;29629;52.532;13.352;2022-08-03T01:17:43;23.67;;;14.18;;
41261;SDS011;29629;52.532;13.352;2022-08-03T01:26:07;21.75;;;13.18;;
41261;SDS011;29629;52.532;13.352;2022-08-03T01:28:49;27.25;;;13.65;;
41261;SDS011;29629;52.532;13.352;2022-08-03T01:31:29;24.63;;;14.95;;
41261;SDS011;29629;52.532;13.352;2022-08-03T01:34:02;16.60;;;15.00;;
41261;SDS011;29629;52.532;13.352;2022-08-03T01:36:33;22.13;;;14.82;;
41261;SDS011;29629;52.532;13.352;2022-08-03T01:39:04;23.65;;;15.10;;
41261;SDS011;29629;52.532;13.352;2022-08-03T01:41:34;24.80;;;14.77;;
41261;SDS011;29629;52.532;13.352;2022-08-03T01:44:07;20.77;;;13.10;;
41261;SDS011;29629;52.532;13.352;2022-08-03T01:46:38;19.85;;;13.95;;
41261;SDS011;29629;52.532;13.352;2022-08-03T01:49:06;19.02;;;12.73;;
41261;SDS011;29629;52.532;13.352;2022-08-03T01:51:36;20.67;;;12.50;;
41261;SDS011;29629;52.532;13.352;2022-08-03T01:54:03;19.38;;;12.20;;
41261;SDS011;29629;52.532;13.352;2022-08-03T01:56:30;16.35;;;12.30;;
41261;SDS011;29629;52.532;13.352;2022-08-03T01:58:58;17.33;;;12.40;;
41261;SDS011;29629;52.532;13.352;2022-08-03T02:01:27;20.38;;;12.63;;
41261;SDS011;29629;52.532;13.352;2022-08-03T02:04:00;20.27;;;13.45;;
41261;SDS011;29629;52.532;13.352;2022-08-03T02:06:29;18.35;;;13.52;;
41261;SDS011;29629;52.532;13.352;2022-08-03T02:09:01;21.02;;;13.98;;
41261;SDS011;29629;52.532;13.352;2022-08-03T02:11:29;20.15;;;13.50;;
41261;SDS011;29629;52.532;13.352;2022-08-03T02:13:59;14.90;;;12.18;;
41261;SDS011;29629;52.532;13.352;2022-08-03T02:16:29;19.45;;;14.10;;
41261;SDS011;29629;52.532;13.352;2022-08-03T02:18:57;22.48;;;12.43;;
41261;SDS011;29629;52.532;13.352;2022-08-03T02:21:28;20.58;;;13.23;;
41261;SDS011;29629;52.532;13.352;2022-08-03T02:23:57;17.10;;;12.35;;
41261;SDS011;29629;52.532;13.352;2022-08-03T02:26:27;15.75;;;11.15;;
41261;SDS011;29629;52.532;13.352;2022-08-03T02:28:58;15.20;;;10.60;;
41261;SDS011;29629;52.532;13.352;2022-08-03T02:31:32;21.88;;;12.52;;
41261;SDS011;29629;52.532;13.352;2022-08-03T02:34:05;16.35;;;11.75;;
41261;SDS011;29629;52.532;13.352;2022-08-03T02:36:38;20.10;;;12.15;;
41261;SDS011;29629;52.532;13.352;2022-08-03T02:39:06;13.98;;;11.43;;
41261;SDS011;29629;52.532;13.352;2022-08-03T02:41:37;20.95;;;12.32;;
41261;SDS011;29629;52.532;13.352;2022-08-03T02:44:08;16.75;;;10.07;;
41261;SDS011;29629;52.532;13.352;2022-08-03T02:46:43;20.25;;;10.27;;
41261;SDS011;29629;52.532;13.352;2022-08-03T02:49:15;15.30;;;9.40;;
41261;SDS011;29629;52.532;13.352;2022-08-03T02:51:43;18.48;;;10.95;;
41261;SDS011;29629;52.532;13.352;2022-08-03T02:54:13;16.42;;;12.05;;
41261;SDS011;29629;52.532;13.352;2022-08-03T02:56:44;22.25;;;11.70;;
41261;SDS011;29629;52.532;13.352;2022-08-03T02:59:13;13.60;;;9.43;;
41261;SDS011;29629;52.532;13.352;2022-08-03T03:01:41;18.80;;;10.65;;
41261;SDS011;29629;52.532;13.352;2022-08-03T03:04:14;14.63;;;9.57;;
41261;SDS011;29629;52.532;13.352;2022-08-03T03:06:42;20.42;;;10.40;;
41261;SDS011;29629;52.532;13.352;2022-08-03T03:09:10;18.27;;;11.15;;
41261;SDS011;29629;52.532;13.352;2022-08-03T03:11:38;23.20;;;10.70;;
41261;SDS011;29629;52.532;13.352;2022-08-03T03:14:07;15.27;;;11.68;;
41261;SDS011;29629;52.532;13.352;2022-08-03T03:16:38;19.05;;;11.32;;
41261;SDS011;29629;52.532;13.352;2022-08-03T03:19:07;18.98;;;12.48;;
41261;SDS011;29629;52.532;13.352;2022-08-03T03:21:36;27.92;;;13.98;;
41261;SDS011;29629;52.532;13.352;2022-08-03T03:24:03;12.77;;;10.93;;
41261;SDS011;29629;52.532;13.352;2022-08-03T03:26:31;25.77;;;12.38;;
41261;SDS011;29629;52.532;13.352;2022-08-03T03:28:59;15.65;;;10.70;;
41261;SDS011;29629;52.532;13.352;2022-08-03T03:31:27;15.07;;;9.90;;
41261;SDS011;29629;52.532;13.352;2022-08-03T03:33:54;17.38;;;11.15;;
41261;SDS011;29629;52.532;13.352;2022-08-03T03:36:23;15.90;;;9.55;;
41261;SDS011;29629;52.532;13.352;2022-08-03T03:38:51;16.45;;;9.88;;
41261;SDS011;29629;52.532;13.352;2022-08-03T03:41:18;18.67;;;10.77;;
41261;SDS011;29629;52.532;13.352;2022-08-03T03:43:45;28.23;;;11.55;;
41261;SDS011;29629;52.532;13.352;2022-08-03T03:46:14;16.67;;;9.15;;
41261;SDS011;29629;52.532;13.352;2022-08-03T03:48:41;17.50;;;9.95;;
41261;SDS011;29629;52.532;13.352;2022-08-03T03:51:09;11.40;;;8.00;;
41261;SDS011;29629;52.532;13.352;2022-08-03T03:53:36;23.38;;;10.38;;
41261;SDS011;29629;52.532;13.352;2022-08-03T03:56:04;18.42;;;10.57;;
41261;SDS011;29629;52.532;13.352;2022-08-03T03:58:31;19.45;;;11.60;;
41261;SDS011;29629;52.532;13.352;2022-08-03T04:00:58;21.95;;;10.55;;
41261;SDS011;29629;52.532;13.352;2022-08-03T04:03:25;17.77;;;10.05;;
41261;SDS011;29629;52.532;13.352;2022-08-03T04:05:52;19.48;;;9.13;;
41261;SDS011;29629;52.532;13.352;2022-08-03T04:08:36;20.67;;;10.88;;
41261;SDS011;29629;52.532;13.352;2022-08-03T04:11:23;13.70;;;9.88;;
41261;SDS011;29629;52.532;13.352;2022-08-03T04:13:54;13.52;;;7.93;;
41261;SDS011;29629;52.532;13.352;2022-08-03T04:16:24;15.27;;;8.15;;
41261;SDS011;29629;52.532;13.352;2022-08-03T04:18:54;14.02;;;7.60;;
41261;SDS011;29629;52.532;13.352;2022-08-03T04:21:24;17.63;;;7.88;;
41261;SDS011;29629;52.532;13.352;2022-08-03T04:23:52;16.95;;;8.20;;
41261;SDS011;29629;52.532;13.352;2022-08-03T04:26:24;17.58;;;7.68;;
41261;SDS011;29629;52.532;13.352;2022-08-03T04:28:55;16.45;;;7.47;;
41261;SDS011;29629;52.532;13.352;2022-08-03T04:31:23;21.02;;;8.35;;
41261;SDS011;29629;52.532;13.352;2022-08-03T04:33:52;28.30;;;9.70;;
41261;SDS011;29629;52.532;13.352;2022-08-03T04:36:20;18.60;;;7.75;;
41261;SDS011;29629;52.532;13.352;2022-08-03T04:38:53;16.25;;;6.45;;
41261;SDS011;29629;52.532;13.352;2022-08-03T04:41:29;12.30;;;5.68;;
41261;SDS011;29629;52.532;13.352;2022-08-03T04:43:58;14.23;;;5.70;;
41261;SDS011;29629;52.532;13.352;2022-08-03T04:46:26;13.98;;;5.55;;
41261;SDS011;29629;52.532;13.352;2022-08-03T04:48:56;17.70;;;6.10;;
41261;SDS011;29629;52.532;13.352;2022-08-03T04:51:24;14.25;;;5.65;;
41261;SDS011;29629;52.532;13.352;2022-08-03T04:53:51;22.77;;;7.20;;
41261;SDS011;29629;52.532;13.352;2022-08-03T04:56:18;18.00;;;6.57;;
41261;SDS011;29629;52.532;13.352;2022-08-03T04:58:46;19.75;;;6.57;;
41261;SDS011;29629;52.532;13.352;2022-08-03T05:01:13;23.02;;;6.93;;
41261;SDS011;29629;52.532;13.352;2022-08-03T05:03:41;23.63;;;6.80;;
41261;SDS011;29629;52.532;13.352;2022-08-03T05:06:08;20.98;;;6.07;;
41261;SDS011;29629;52.532;13.352;2022-08-03T05:08:35;22.17;;;7.35;;
41261;SDS011;29629;52.532;13.352;2022-08-03T05:11:02;18.10;;;6.50;;
41261;SDS011;29629;52.532;13.352;2022-08-03T05:13:29;15.95;;;5.70;;
41261;SDS011;29629;52.532;13.352;2022-08-03T05:15:57;21.48;;;6.82;;
41261;SDS011;29629;52.532;13.352;2022-08-03T05:18:24;21.75;;;7.43;;
41261;SDS011;29629;52.532;13.352;2022-08-03T05:20:50;19.15;;;6.72;;
41261;SDS011;29629;52.532;13.352;2022-08-03T05:23:17;12.75;;;5.40;;
41261;SDS011;29629;52.532;13.352;2022-08-03T05:25:44;22.00;;;7.28;;
41261;SDS011;29629;52.532;13.352;2022-08-03T05:28:11;15.02;;;5.25;;
41261;SDS011;29629;52.532;13.352;2022-08-03T05:30:37;23.42;;;6.90;;
41261;SDS011;29629;52.532;13.352;2022-08-03T05:33:06;20.88;;;8.30;;
41261;SDS011;29629;52.532;13.352;2022-08-03T05:35:33;20.95;;;7.63;;
41261;SDS011;29629;52.532;13.352;2022-08-03T05:38:00;18.45;;;6.85;;
41261;SDS011;29629;52.532;13.352;2022-08-03T05:40:27;11.23;;;4.95;;
41261;SDS011;29629;52.532;13.352;2022-08-03T05:42:54;24.05;;;6.63;;
41261;SDS011;29629;52.532;13.352;2022-08-03T05:45:21;18.95;;;7.28;;
41261;SDS011;29629;52.532;13.352;2022-08-03T05:47:48;25.77;;;7.72;;
41261;SDS011;29629;52.532;13.352;2022-08-03T05:50:16;34.45;;;7.47;;
41261;SDS011;29629;52.532;13.352;2022-08-03T05:52:45;23.25;;;7.60;;
41261;SDS011;29629;52.532;13.352;2022-08-03T05:55:12;23.77;;;7.00;;
41261;SDS011;29629;52.532;13.352;2022-08-03T05:57:39;27.55;;;7.32;;
41261;SDS011;29629;52.532;13.352;2022-08-03T06:00:07;17.48;;;5.47;;
41261;SDS011;29629;52.532;13.352;2022-08-03T06:02:36;22.90;;;6.18;;
41261;SDS011;29629;52.532;13.352;2022-08-03T06:05:03;18.75;;;6.53;;
41261;SDS011;29629;52.532;13.352;2022-08-03T06:07:35;28.73;;;7.20;;
41261;SDS011;29629;52.532;13.352;2022-08-03T06:10:02;23.10;;;6.72;;
41261;SDS011;29629;52.532;13.352;2022-08-03T06:12:32;23.13;;;7.07;;
41261;SDS011;29629;52.532;13.352;2022-08-03T06:15:00;30.58;;;7.10;;
41261;SDS011;29629;52.532;13.352;2022-08-03T06:17:29;19.23;;;5.63;;
41261;SDS011;29629;52.532;13.352;2022-08-03T06:19:56;22.33;;;5.95;;
41261;SDS011;29629;52.532;13.352;2022-08-03T06:22:22;10.85;;;4.43;;
41261;SDS011;29629;52.532;13.352;2022-08-03T06:24:51;26.55;;;7.07;;
41261;SDS011;29629;52.532;13.352;2022-08-03T06:27:17;18.13;;;5.85;;
41261;SDS011;29629;52.532;13.352;2022-08-03T06:29:44;27.10;;;7.43;;
41261;SDS011;29629;52.532;13.352;2022-08-03T06:32:11;20.15;;;7.03;;
41261;SDS011;29629;52.532;13.352;2022-08-03T06:34:38;36.42;;;9.90;;
41261;SDS011;29629;52.532;13.352;2022-08-03T06:37:05;21.40;;;6.05;;
41261;SDS011;29629;52.532;13.352;2022-08-03T06:39:32;19.38;;;6.20;;
41261;SDS011;29629;52.532;13.352;2022-08-03T06:42:00;12.70;;;4.65;;
41261;SDS011;29629;52.532;13.352;2022-08-03T06:44:27;24.75;;;6.60;;
41261;SDS011;29629;52.532;13.352;2022-08-03T06:46:54;12.90;;;4.47;;
41261;SDS011;29629;52.532;13.352;2022-08-03T06:49:22;20.70;;;5.57;;
41261;SDS011;29629;52.532;13.352;2022-08-03T06:51:49;22.05;;;6.93;;
41261;SDS011;29629;52.532;13.352;2022-08-03T06:54:17;23.83;;;5.70;;
41261;SDS011;29629;52.532;13.352;2022-08-03T06:56:46;18.23;;;5.35;;
41261;SDS011;29629;52.532;13.352;2022-08-03T06:59:14;16.13;;;5.47;;
41261;SDS011;29629;52.532;13.352;2022-08-03T07:01:41;27.42;;;6.43;;
41261;SDS011;29629;52.532;13.352;2022-08-03T07:04:08;18.42;;;6.18;;
41261;SDS011;29629;52.532;13.352;2022-08-03T07:06:36;13.75;;;4.60;;
41261;SDS011;29629;52.532;13.352;2022-08-03T07:09:02;15.65;;;3.90;;
41261;SDS011;29629;52.532;13.352;2022-08-03T07:11:29;17.67;;;3.80;;
41261;SDS011;29629;52.532;13.352;2022-08-03T07:13:56;11.30;;;3.30;;
41261;SDS011;29629;52.532;13.352;2022-08-03T07:16:24;13.32;;;3.90;;
41261;SDS011;29629;52.532;13.352;2022-08-03T07:18:51;14.13;;;3.63;;
41261;SDS011;29629;52.532;13.352;2022-08-03T07:21:18;15.55;;;3.90;;
41261;SDS011;29629;52.532;13.352;2022-08-03T07:23:45;14.65;;;3.92;;
41261;SDS011;29629;52.532;13.352;2022-08-03T07:26:11;11.75;;;3.17;;
41261;SDS011;29629;52.532;13.352;2022-08-03T07:28:38;6.25;;;2.30;;
41261;SDS011;29629;52.532;13.352;2022-08-03T07:31:05;12.65;;;3.50;;
41261;SDS011;29629;52.532;13.352;2022-08-03T07:33:33;11.70;;;3.45;;
41261;SDS011;29629;52.532;13.352;2022-08-03T07:36:00;13.27;;;3.58;;
41261;SDS011;29629;52.532;13.352;2022-08-03T07:38:27;15.30;;;4.05;;
41261;SDS011;29629;52.532;13.352;2022-08-03T07:40:54;16.75;;;4.18;;
41261;SDS011;29629;52.532;13.352;2022-08-03T07:43:20;16.23;;;3.65;;
41261;SDS011;29629;52.532;13.352;2022-08-03T07:45:48;14.20;;;3.70;;
41261;SDS011;29629;52.532;13.352;2022-08-03T07:48:18;17.10;;;4.25;;
41261;SDS011;29629;52.532;13.352;2022-08-03T07:50:46;6.85;;;2.65;;
41261;SDS011;29629;52.532;13.352;2022-08-03T07:53:13;14.73;;;4.22;;
41261;SDS011;29629;52.532;13.352;2022-08-03T07:55:40;16.85;;;3.92;;
41261;SDS011;29629;52.532;13.352;2022-08-03T07:58:08;13.10;;;4.05;;
41261;SDS011;29629;52.532;13.352;2022-08-03T08:00:40;7.25;;;2.75;;
41261;SDS011;29629;52.532;13.352;2022-08-03T08:03:08;15.02;;;3.60;;
41261;SDS011;29629;52.532;13.352;2022-08-03T08:05:36;12.55;;;3.78;;
41261;SDS011;29629;52.532;13.352;2022-08-03T08:08:04;17.33;;;4.38;;
41261;SDS011;29629;52.532;13.352;2022-08-03T08:10:31;19.48;;;4.45;;
41261;SDS011;29629;52.532;13.352;2022-08-03T08:12:59;19.35;;;5.40;;
41261;SDS011;29629;52.532;13.352;2022-08-03T08:15:26;11.90;;;3.80;;
41261;SDS011;29629;52.532;13.352;2022-08-03T08:17:54;13.05;;;3.85;;
41261;SDS011;29629;52.532;13.352;2022-08-03T08:20:23;18.88;;;5.03;;
41261;SDS011;29629;52.532;13.352;2022-08-03T08:22:51;15.13;;;4.38;;
41261;SDS011;29629;52.532;13.352;2022-08-03T08:25:19;19.70;;;5.28;;
41261;SDS011;29629;52.532;13.352;2022-08-03T08:27:47;21.88;;;4.75;;
41261;SDS011;29629;52.532;13.352;2022-08-03T08:30:15;22.92;;;5.68;;
41261;SDS011;29629;52.532;13.352;2022-08-03T08:32:43;18.38;;;4.63;;
41261;SDS011;29629;52.532;13.352;2022-08-03T08:35:10;13.65;;;4.05;;
41261;SDS011;29629;52.532;13.352;2022-08-03T08:37:37;13.50;;;4.30;;
41261;SDS011;29629;52.532;13.352;2022-08-03T08:40:06;16.48;;;5.32;;
41261;SDS011;29629;52.532;13.352;2022-08-03T08:42:37;16.17;;;5.53;;
41261;SDS011;29629;52.532;13.352;2022-08-03T08:45:04;11.50;;;3.88;;
41261;SDS011;29629;52.532;13.352;2022-08-03T08:47:33;19.58;;;5.32;;
41261;SDS011;29629;52.532;13.352;2022-08-03T08:50:03;16.95;;;4.68;;
41261;SDS011;29629;52.532;13.352;2022-08-03T08:52:32;17.85;;;4.97;;
41261;SDS011;29629;52.532;13.352;2022-08-03T08:55:00;18.40;;;5.07;;
41261;SDS011;29629;52.532;13.352;2022-08-03T08:57:29;15.57;;;4.55;;
41261;SDS011;29629;52.532;13.352;2022-08-03T08:59:59;18.08;;;5.35;;
41261;SDS011;29629;52.532;13.352;2022-08-03T09:02:28;14.80;;;4.47;;
41261;SDS011;29629;52.532;13.352;2022-08-03T09:04:55;10.00;;;4.15;;
41261;SDS011;29629;52.532;13.352;2022-08-03T09:07:24;7.95;;;4.32;;
41261;SDS011;29629;52.532;13.352;2022-08-03T09:09:51;16.75;;;5.30;;
41261;SDS011;29629;52.532;13.352;2022-08-03T09:12:18;6.05;;;4.57;;
41261;SDS011;29629;52.532;13.352;2022-08-03T09:14:44;12.38;;;4.65;;
41261;SDS011;29629;52.532;13.352;2022-08-03T09:17:13;13.25;;;5.85;;
41261;SDS011;29629;52.532;13.352;2022-08-03T09:19:40;12.70;;;5.78;;
41261;SDS011;29629;52.532;13.352;2022-08-03T09:22:07;14.10;;;6.50;;
41261;SDS011;29629;52.532;13.352;2022-08-03T09:24:38;18.50;;;7.10;;
41261;SDS011;29629;52.532;13.352;2022-08-03T09:27:20;14.10;;;6.35;;
41261;SDS011;29629;52.532;13.352;2022-08-03T09:29:48;16.40;;;7.05;;
41261;SDS011;29629;52.532;13.352;2022-08-03T09:32:17;8.77;;;6.88;;
41261;SDS011;29629;52.532;13.352;2022-08-03T09:34:46;12.38;;;8.60;;
41261;SDS011;29629;52.532;13.352;2022-08-03T09:37:13;13.45;;;8.55;;
41261;SDS011;29629;52.532;13.352;2022-08-03T09:39:42;13.05;;;8.43;;
41261;SDS011;29629;52.532;13.352;2022-08-03T09:42:09;17.90;;;9.20;;
41261;SDS011;29629;52.532;13.352;2022-08-03T09:44:39;24.42;;;11.35;;
41261;SDS011;29629;52.532;13.352;2022-08-03T09:47:07;19.15;;;10.50;;
41261;SDS011;29629;52.532;13.352;2022-08-03T09:49:36;12.40;;;9.40;;
41261;SDS011;29629;52.532;13.352;2022-08-03T09:52:11;10.23;;;8.45;;
41261;SDS011;29629;52.532;13.352;2022-08-03T09:54:39;24.77;;;10.90;;
41261;SDS011;29629;52.532;13.352;2022-08-03T09:57:06;16.25;;;10.25;;
41261;SDS011;29629;52.532;13.352;2022-08-03T09:59:33;16.42;;;10.40;;
41261;SDS011;29629;52.532;13.352;2022-08-03T10:02:00;10.85;;;10.00;;
41261;SDS011;29629;52.532;13.352;2022-08-03T10:04:27;19.05;;;11.60;;
41261;SDS011;29629;52.532;13.352;2022-08-03T10:07:03;16.08;;;11.65;;
41261;SDS011;29629;52.532;13.352;2022-08-03T10:09:31;12.98;;;10.90;;
41261;SDS011;29629;52.532;13.352;2022-08-03T10:12:05;13.45;;;10.82;;
41261;SDS011;29629;52.532;13.352;2022-08-03T10:14:34;28.83;;;12.48;;
41261;SDS011;29629;52.532;13.352;2022-08-03T10:17:03;11.07;;;9.15;;
41261;SDS011;29629;52.532;13.352;2022-08-03T10:19:30;13.65;;;9.88;;
41261;SDS011;29629;52.532;13.352;2022-08-03T10:22:00;23.00;;;10.93;;
41261;SDS011;29629;52.532;13.352;2022-08-03T10:24:33;16.42;;;10.15;;
41261;SDS011;29629;52.532;13.352;2022-08-03T10:27:02;11.85;;;9.85;;
41261;SDS011;29629;52.532;13.352;2022-08-03T10:29:33;11.00;;;9.88;;
41261;SDS011;29629;52.532;13.352;2022-08-03T10:32:03;12.63;;;10.52;;
41261;SDS011;29629;52.532;13.352;2022-08-03T10:34:39;22.73;;;11.15;;
41261;SDS011;29629;52.532;13.352;2022-08-03T10:37:10;12.60;;;9.05;;
41261;SDS011;29629;52.532;13.352;2022-08-03T10:39:37;12.80;;;9.45;;
41261;SDS011;29629;52.532;13.352;2022-08-03T10:42:17;13.13;;;9.57;;
41261;SDS011;29629;52.532;13.352;2022-08-03T10:44:46;10.38;;;9.27;;
41261;SDS011;29629;52.532;13.352;2022-08-03T10:47:17;14.82;;;9.88;;
41261;SDS011;29629;52.532;13.352;2022-08-03T10:49:46;12.52;;;9.65;;
41261;SDS011;29629;52.532;13.352;2022-08-03T10:52:14;12.60;;;9.48;;
41261;SDS011;29629;52.532;13.352;2022-08-03T10:54:42;15.10;;;10.43;;
41261;SDS011;29629;52.532;13.352;2022-08-03T10:57:43;12.45;;;9.85;;
41261;SDS011;29629;52.532;13.352;2022-08-03T11:00:12;19.42;;;10.00;;
41261;SDS011;29629;52.532;13.352;2022-08-03T11:05:36;14.93;;;10.32;;
41261;SDS011;29629;52.532;13.352;2022-08-03T11:08:19;12.50;;;10.40;;
41261;SDS011;29629;52.532;13.352;2022-08-03T11:10:48;14.60;;;9.87;;
41261;SDS011;29629;52.532;13.352;2022-08-03T11:13:15;9.68;;;8.95;;
41261;SDS011;29629;52.532;13.352;2022-08-03T11:15:44;13.30;;;9.75;;
41261;SDS011;29629;52.532;13.352;2022-08-03T11:18:13;14.55;;;10.02;;
41261;SDS011;29629;52.532;13.352;2022-08-03T11:20:47;13.05;;;9.10;;
41261;SDS011;29629;52.532;13.352;2022-08-03T11:23:16;15.35;;;9.38;;
41261;SDS011;29629;52.532;13.352;2022-08-03T11:28:34;10.60;;;8.23;;
41261;SDS011;29629;52.532;13.352;2022-08-03T11:34:12;13.63;;;8.40;;
41261;SDS011;29629;52.532;13.352;2022-08-03T11:39:47;14.82;;;9.13;;
41261;SDS011;29629;52.532;13.352;2022-08-03T11:42:37;17.20;;;9.43;;
41261;SDS011;29629;52.532;13.352;2022-08-03T11:45:06;17.88;;;9.82;;
41261;SDS011;29629;52.532;13.352;2022-08-03T11:47:36;17.73;;;9.35;;
41261;SDS011;29629;52.532;13.352;2022-08-03T11:50:04;17.55;;;9.27;;
41261;SDS011;29629;52.532;13.352;2022-08-03T11:52:33;18.45;;;9.13;;
41261;SDS011;29629;52.532;13.352;2022-08-03T11:55:04;21.30;;;9.55;;
41261;SDS011;29629;52.532;13.352;2022-08-03T11:57:34;15.57;;;8.65;;
41261;SDS011;29629;52.532;13.352;2022-08-03T12:00:02;17.13;;;9.30;;
41261;SDS011;29629;52.532;13.352;2022-08-03T12:08:29;10.98;;;8.15;;
41261;SDS011;29629;52.532;13.352;2022-08-03T12:11:03;14.02;;;8.23;;
41261;SDS011;29629;52.532;13.352;2022-08-03T12:13:51;16.33;;;8.40;;
41261;SDS011;29629;52.532;13.352;2022-08-03T12:16:29;15.77;;;8.85;;
41261;SDS011;29629;52.532;13.352;2022-08-03T12:18:57;10.82;;;8.00;;
41261;SDS011;29629;52.532;13.352;2022-08-03T12:21:25;12.93;;;8.23;;
41261;SDS011;29629;52.532;13.352;2022-08-03T12:23:55;18.38;;;8.80;;
41261;SDS011;29629;52.532;13.352;2022-08-03T12:26:25;15.35;;;8.95;;
41261;SDS011;29629;52.532;13.352;2022-08-03T12:28:53;12.82;;;8.18;;
41261;SDS011;29629;52.532;13.352;2022-08-03T12:31:20;14.60;;;7.75;;
41261;SDS011;29629;52.532;13.352;2022-08-03T12:33:53;17.23;;;7.97;;
41261;SDS011;29629;52.532;13.352;2022-08-03T12:36:22;17.13;;;8.50;;
41261;SDS011;29629;52.532;13.352;2022-08-03T12:38:53;11.10;;;7.60;;
41261;SDS011;29629;52.532;13.352;2022-08-03T12:41:27;17.20;;;7.30;;
41261;SDS011;29629;52.532;13.352;2022-08-03T12:43:56;16.38;;;8.13;;
41261;SDS011;29629;52.532;13.352;2022-08-03T12:46:27;27.90;;;10.75;;
41261;SDS011;29629;52.532;13.352;2022-08-03T12:48:56;9.30;;;6.40;;
41261;SDS011;29629;52.532;13.352;2022-08-03T12:51:24;15.23;;;7.45;;
41261;SDS011;29629;52.532;13.352;2022-08-03T12:53:52;15.52;;;6.78;;
41261;SDS011;29629;52.532;13.352;2022-08-03T12:56:19;20.20;;;7.80;;
41261;SDS011;29629;52.532;13.352;2022-08-03T12:58:48;14.55;;;6.97;;
41261;SDS011;29629;52.532;13.352;2022-08-03T13:01:15;12.80;;;6.03;;
41261;SDS011;29629;52.532;13.352;2022-08-03T13:03:43;14.48;;;6.85;;
41261;SDS011;29629;52.532;13.352;2022-08-03T13:06:12;11.32;;;6.22;;
41261;SDS011;29629;52.532;13.352;2022-08-03T13:08:41;19.20;;;7.60;;
41261;SDS011;29629;52.532;13.352;2022-08-03T13:11:21;13.63;;;6.82;;
41261;SDS011;29629;52.532;13.352;2022-08-03T13:13:50;16.13;;;6.57;;
41261;SDS011;29629;52.532;13.352;2022-08-03T13:16:18;6.38;;;5.88;;
41261;SDS011;29629;52.532;13.352;2022-08-03T13:18:46;13.13;;;6.68;;
41261;SDS011;29629;52.532;13.352;2022-08-03T13:21:14;12.18;;;6.60;;
41261;SDS011;29629;52.532;13.352;2022-08-03T13:23:41;15.45;;;7.63;;
41261;SDS011;29629;52.532;13.352;2022-08-03T13:26:09;15.40;;;6.70;;
41261;SDS011;29629;52.532;13.352;2022-08-03T13:28:37;14.93;;;7.30;;
41261;SDS011;29629;52.532;13.352;2022-08-03T13:31:06;18.85;;;7.53;;
41261;SDS011;29629;52.532;13.352;2022-08-03T13:33:33;20.17;;;7.18;;
41261;SDS011;29629;52.532;13.352;2022-08-03T13:36:00;16.25;;;6.05;;
41261;SDS011;29629;52.532;13.352;2022-08-03T13:38:27;15.70;;;5.75;;
41261;SDS011;29629;52.532;13.352;2022-08-03T13:40:54;10.30;;;5.38;;
41261;SDS011;29629;52.532;13.352;2022-08-03T13:43:20;12.00;;;5.32;;
41261;SDS011;29629;52.532;13.352;2022-08-03T13:45:47;13.45;;;6.18;;
41261;SDS011;29629;52.532;13.352;2022-08-03T13:48:16;13.38;;;5.75;;
41261;SDS011;29629;52.532;13.352;2022-08-03T13:50:43;21.92;;;6.25;;
41261;SDS011;29629;52.532;13.352;2022-08-03T13:53:09;13.10;;;5.63;;
41261;SDS011;29629;52.532;13.352;2022-08-03T13:55:36;17.40;;;5.97;;
41261;SDS011;29629;52.532;13.352;2022-08-03T13:58:03;12.45;;;5.32;;
41261;SDS011;29629;52.532;13.352;2022-08-03T14:00:32;21.80;;;6.63;;
41261;SDS011;29629;52.532;13.352;2022-08-03T14:02:59;20.92;;;6.72;;
41261;SDS011;29629;52.532;13.352;2022-08-03T14:05:28;27.20;;;7.32;;
41261;SDS011;29629;52.532;13.352;2022-08-03T14:07:56;17.67;;;5.78;;
41261;SDS011;29629;52.532;13.352;2022-08-03T14:10:25;20.17;;;5.93;;
41261;SDS011;29629;52.532;13.352;2022-08-03T14:12:51;23.52;;;5.35;;
41261;SDS011;29629;52.532;13.352;2022-08-03T14:15:20;20.65;;;5.97;;
41261;SDS011;29629;52.532;13.352;2022-08-03T14:17:47;14.52;;;4.90;;
41261;SDS011;29629;52.532;13.352;2022-08-03T14:20:14;18.85;;;5.47;;
41261;SDS011;29629;52.532;13.352;2022-08-03T14:22:45;15.63;;;5.28;;
41261;SDS011;29629;52.532;13.352;2022-08-03T14:25:12;15.63;;;4.50;;
41261;SDS011;29629;52.532;13.352;2022-08-03T14:27:39;4.93;;;3.25;;
41261;SDS011;29629;52.532;13.352;2022-08-03T14:30:06;20.33;;;5.60;;
41261;SDS011;29629;52.532;13.352;2022-08-03T14:32:34;13.73;;;3.90;;
41261;SDS011;29629;52.532;13.352;2022-08-03T14:35:00;6.03;;;3.05;;
41261;SDS011;29629;52.532;13.352;2022-08-03T14:37:27;12.90;;;4.43;;
41261;SDS011;29629;52.532;13.352;2022-08-03T14:39:55;12.73;;;4.43;;
41261;SDS011;29629;52.532;13.352;2022-08-03T14:42:22;36.00;;;11.68;;
41261;SDS011;29629;52.532;13.352;2022-08-03T14:44:49;10.35;;;3.80;;
41261;SDS011;29629;52.532;13.352;2022-08-03T14:47:16;13.85;;;4.10;;
41261;SDS011;29629;52.532;13.352;2022-08-03T14:49:43;12.60;;;4.45;;
41261;SDS011;29629;52.532;13.352;2022-08-03T14:52:10;12.18;;;4.45;;